Time;durP1;ratioP1;P1;durP2;ratioP2;P2;SDS_P1;SDS_P2;PMS_P1;PMS_P2;Temp;Humidity;BMP_temperature;BMP_pressure;BME280_temperature;BME280_humidity;BME280_pressure;Samples;Min_cycle;Max_cycle;Signal;HPM_P1;HPM_P2
2021/06/04 00:02:25;;;;;;;25.05;17.20;;;;;;;15.48;100.00;101846.66;6273611;28;20052;-77
2021/06/04 00:05:31;;;;;;;21.60;16.73;;;;;;;15.51;100.00;101836.84;6273129;28;20144;-77
2021/06/04 00:08:33;;;;;;;23.80;16.63;;;;;;;15.48;100.00;101838.72;6273370;28;20049;-77
2021/06/04 00:11:36;;;;;;;20.48;16.45;;;;;;;15.48;100.00;101840.50;6273132;28;20432;-77
2021/06/04 00:14:42;;;;;;;31.65;16.65;;;;;;;15.39;100.00;101835.72;6272986;28;20049;-77
2021/06/04 00:17:43;;;;;;;20.40;16.42;;;;;;;15.42;100.00;101824.97;6273061;28;20549;-77
2021/06/04 00:20:44;;;;;;;27.25;17.83;;;;;;;15.47;100.00;101829.06;6273113;28;20057;-77
2021/06/04 00:23:46;;;;;;;22.65;16.40;;;;;;;15.46;100.00;101826.50;6273305;28;20057;-78
2021/06/04 00:26:48;;;;;;;24.95;16.70;;;;;;;15.41;100.00;101817.97;6273160;28;20052;-78
2021/06/04 00:29:51;;;;;;;21.35;16.30;;;;;;;15.40;100.00;101827.72;6272848;28;20056;-78
2021/06/04 00:32:52;;;;;;;24.45;17.05;;;;;;;15.40;100.00;101824.22;6273246;28;20049;-77
2021/06/04 00:35:53;;;;;;;23.38;16.75;;;;;;;15.39;100.00;101823.34;6273255;28;20416;-78
2021/06/04 00:38:55;;;;;;;28.00;16.95;;;;;;;15.40;100.00;101819.78;6272664;28;20053;-78
2021/06/04 00:41:59;;;;;;;22.33;16.52;;;;;;;15.37;100.00;101819.09;6272724;28;20056;-77
2021/06/04 00:45:06;;;;;;;25.10;18.20;;;;;;;15.41;100.00;101812.66;6272413;28;20049;-77
2021/06/04 00:48:08;;;;;;;26.40;19.10;;;;;;;15.42;100.00;101814.38;6272137;28;20067;-78
2021/06/04 00:51:12;;;;;;;27.42;17.67;;;;;;;15.42;100.00;101812.56;6272430;28;20044;-77
2021/06/04 00:54:15;;;;;;;20.98;17.67;;;;;;;15.42;100.00;101817.88;6270502;28;20045;-77
2021/06/04 00:57:16;;;;;;;26.25;17.42;;;;;;;15.44;100.00;101818.66;6265397;28;20053;-77
2021/06/04 01:00:28;;;;;;;28.27;17.77;;;;;;;15.35;100.00;101808.59;6272069;28;20052;-77
2021/06/04 01:03:33;;;;;;;24.95;17.48;;;;;;;15.31;100.00;101807.03;6272080;28;20057;-78
2021/06/04 01:06:39;;;;;;;23.85;16.10;;;;;;;15.29;100.00;101816.00;6271912;28;20053;-78
2021/06/04 01:09:53;;;;;;;24.27;16.30;;;;;;;15.19;100.00;101815.66;6271651;28;20459;-78
2021/06/04 01:13:01;;;;;;;26.40;18.10;;;;;;;15.19;100.00;101805.94;6271776;28;20049;-77
2021/06/04 01:16:21;;;;;;;24.42;17.65;;;;;;;15.23;100.00;101796.88;6271971;28;20488;-77
2021/06/04 01:19:41;;;;;;;25.92;18.98;;;;;;;15.21;100.00;101804.06;6271721;28;20053;-78
2021/06/04 01:23:15;;;;;;;22.70;16.98;;;;;;;15.20;100.00;101807.63;6271991;28;20099;-78
2021/06/04 01:26:26;;;;;;;31.38;17.23;;;;;;;15.13;100.00;101805.44;6267721;28;20127;-77
2021/06/04 01:29:32;;;;;;;21.38;14.95;;;;;;;15.09;100.00;101802.09;6271506;28;20045;-77
2021/06/04 01:32:36;;;;;;;26.35;18.20;;;;;;;15.11;100.00;101799.34;6271933;28;20049;-78
2021/06/04 01:35:41;;;;;;;22.33;17.13;;;;;;;15.13;100.00;101806.28;6271451;28;20045;-77
2021/06/04 01:38:43;;;;;;;30.75;17.13;;;;;;;15.04;100.00;101811.22;6271407;28;20107;-77
2021/06/04 01:41:48;;;;;;;22.98;16.70;;;;;;;15.00;100.00;101810.53;6271337;28;20049;-77
2021/06/04 01:44:53;;;;;;;24.30;16.90;;;;;;;14.96;100.00;101807.19;6271446;28;20041;-77
2021/06/04 01:47:59;;;;;;;24.50;17.70;;;;;;;14.96;100.00;101804.56;6271191;28;20057;-77
2021/06/04 01:51:04;;;;;;;26.00;17.95;;;;;;;14.94;100.00;101797.63;6271367;28;20045;-77
2021/06/04 01:54:09;;;;;;;28.10;19.00;;;;;;;14.89;100.00;101802.31;6271040;28;20209;-77
2021/06/04 01:57:16;;;;;;;27.95;19.40;;;;;;;14.96;100.00;101801.06;6271524;28;20057;-77
2021/06/04 02:00:23;;;;;;;31.05;20.55;;;;;;;15.02;100.00;101797.19;6274138;28;20048;-77
2021/06/04 02:03:24;;;;;;;28.52;21.58;;;;;;;15.00;100.00;101807.03;6275995;28;20056;-77
2021/06/04 02:06:27;;;;;;;32.63;21.83;;;;;;;14.97;100.00;101813.34;6276033;28;20049;-78
2021/06/04 02:09:29;;;;;;;25.63;20.13;;;;;;;14.83;100.00;101800.84;6276005;28;20053;-78
2021/06/04 02:12:31;;;;;;;26.02;19.50;;;;;;;14.84;100.00;101801.72;6276157;28;20483;-77
2021/06/04 02:15:36;;;;;;;28.75;20.85;;;;;;;14.86;100.00;101799.84;6275766;28;20045;-77
2021/06/04 02:18:47;;;;;;;26.90;20.35;;;;;;;14.87;100.00;101807.69;6275635;28;20049;-77
2021/06/04 02:21:55;;;;;;;29.70;19.40;;;;;;;14.74;100.00;101797.88;6275601;28;20049;-77
2021/06/04 02:25:05;;;;;;;27.13;18.92;;;;;;;14.75;100.00;101800.41;6275600;28;20068;-77
2021/06/04 02:28:14;;;;;;;28.55;21.38;;;;;;;14.82;100.00;101795.66;6275671;28;20045;-77
2021/06/04 02:31:20;;;;;;;34.28;22.95;;;;;;;14.80;100.00;101798.38;6275547;28;20492;-77
2021/06/04 02:34:24;;;;;;;29.50;21.08;;;;;;;14.78;100.00;101802.91;6275011;28;20041;-78
2021/06/04 02:37:32;;;;;;;30.25;20.80;;;;;;;14.71;100.00;101806.81;6275309;28;20049;-77
2021/06/04 02:40:36;;;;;;;38.42;20.83;;;;;;;14.65;100.00;101807.13;6275126;28;20500;-77
2021/06/04 02:43:42;;;;;;;25.90;19.02;;;;;;;14.60;100.00;101806.53;6275154;28;20618;-77
2021/06/04 02:46:46;;;;;;;28.92;21.73;;;;;;;14.60;100.00;101807.38;6275369;28;20045;-77
2021/06/04 02:49:48;;;;;;;30.55;22.23;;;;;;;14.56;100.00;101803.19;6274925;28;20045;-77
2021/06/04 02:52:50;;;;;;;28.92;19.05;;;;;;;14.56;100.00;101821.72;6275058;28;20058;-77
2021/06/04 02:56:06;;;;;;;42.47;20.63;;;;;;;14.52;100.00;101814.03;6275097;28;20041;-77
2021/06/04 02:59:11;;;;;;;26.92;19.42;;;;;;;14.49;100.00;101814.16;6274413;28;20053;-77
2021/06/04 03:02:15;;;;;;;31.35;20.15;;;;;;;14.41;100.00;101820.69;6274760;28;20049;-77
2021/06/04 03:05:21;;;;;;;29.40;21.38;;;;;;;14.44;100.00;101827.59;6274253;28;20045;-77
2021/06/04 03:08:22;;;;;;;30.25;19.65;;;;;;;14.42;100.00;101821.56;6274415;28;20508;-77
2021/06/04 03:11:23;;;;;;;29.45;19.55;;;;;;;14.35;100.00;101817.50;6273655;28;20454;-77
2021/06/04 03:14:26;;;;;;;31.02;20.33;;;;;;;14.30;100.00;101816.88;6274367;28;20512;-77
2021/06/04 03:17:32;;;;;;;28.45;21.65;;;;;;;14.38;100.00;101814.72;6274248;28;20049;-77
2021/06/04 03:20:38;;;;;;;28.35;21.13;;;;;;;14.31;100.00;101816.84;6274034;28;20053;-77
2021/06/04 03:23:39;;;;;;;26.48;19.77;;;;;;;14.33;100.00;101819.38;6274055;28;20118;-77
2021/06/04 03:26:41;;;;;;;32.95;22.40;;;;;;;14.36;100.00;101821.88;6274183;28;20041;-77
2021/06/04 03:29:43;;;;;;;37.30;22.13;;;;;;;14.37;100.00;101828.88;6273778;28;20057;-77
2021/06/04 03:32:45;;;;;;;30.33;21.83;;;;;;;14.38;100.00;101826.13;6274137;28;20060;-77
2021/06/04 03:35:48;;;;;;;27.80;19.85;;;;;;;14.40;100.00;101831.38;6273956;28;20049;-77
2021/06/04 03:38:49;;;;;;;35.22;22.85;;;;;;;14.28;100.00;101834.63;6273456;28;20391;-77
2021/06/04 03:41:51;;;;;;;28.15;22.25;;;;;;;14.32;100.00;101841.47;6273895;28;20055;-77
2021/06/04 03:44:55;;;;;;;39.08;22.80;;;;;;;14.38;100.00;101841.16;6273590;28;20048;-77
2021/06/04 03:47:56;;;;;;;31.73;22.77;;;;;;;14.35;100.00;101839.53;6273589;28;20076;-77
2021/06/04 03:51:00;;;;;;;31.58;22.48;;;;;;;14.39;100.00;101848.16;6273264;28;20052;-77
2021/06/04 03:54:02;;;;;;;30.50;22.85;;;;;;;14.39;100.00;101848.16;6273554;28;20044;-77
2021/06/04 03:57:04;;;;;;;30.15;23.05;;;;;;;14.39;100.00;101848.16;6273668;28;20075;-78
2021/06/04 04:00:13;;;;;;;34.05;24.10;;;;;;;14.45;100.00;101850.50;6273126;28;20049;-78
2021/06/04 04:03:15;;;;;;;36.20;23.23;;;;;;;14.46;100.00;101849.56;6273297;28;20049;-77
2021/06/04 04:06:16;;;;;;;33.08;24.02;;;;;;;14.47;100.00;101845.97;6273109;28;20384;-77
2021/06/04 04:09:17;;;;;;;35.70;25.92;;;;;;;14.46;100.00;101847.75;6272195;28;20128;-77
2021/06/04 04:12:18;;;;;;;47.45;26.33;;;;;;;14.46;100.00;101847.75;6271299;28;20061;-77
2021/06/04 04:15:22;;;;;;;47.00;23.48;;;;;;;14.41;100.00;101849.78;6271245;28;20159;-77
2021/06/04 04:18:24;;;;;;;33.92;25.42;;;;;;;14.45;100.00;101842.56;6270407;28;20051;-78
2021/06/04 04:21:26;;;;;;;39.33;26.40;;;;;;;14.50;100.00;101837.91;6271717;28;20049;-77
2021/06/04 04:24:31;;;;;;;33.35;24.73;;;;;;;14.52;100.00;101836.03;6270243;28;20049;-77
2021/06/04 04:27:32;;;;;;;37.38;24.60;;;;;;;14.48;100.00;101831.84;6269283;28;20045;-77
2021/06/04 04:30:35;;;;;;;34.40;24.48;;;;;;;14.52;100.00;101832.53;6271081;28;20102;-77
2021/06/04 04:33:37;;;;;;;39.00;25.55;;;;;;;14.53;100.00;101832.44;6270969;28;20049;-77
2021/06/04 04:36:40;;;;;;;36.95;24.95;;;;;;;14.60;100.00;101830.34;6270844;28;20144;-77
2021/06/04 04:39:43;;;;;;;36.80;25.02;;;;;;;14.66;100.00;101830.00;6271012;28;20045;-77
2021/06/04 04:42:45;;;;;;;33.10;23.95;;;;;;;14.68;100.00;101831.66;6272225;28;20053;-77
2021/06/04 04:45:48;;;;;;;37.28;25.02;;;;;;;14.71;100.00;101834.13;6272071;28;20049;-78
2021/06/04 04:48:48;;;;;;;36.63;26.77;;;;;;;14.73;100.00;101833.19;6272082;28;20056;-78
2021/06/04 04:51:49;;;;;;;37.78;25.40;;;;;;;14.78;100.00;101831.16;6272119;28;20123;-78
2021/06/04 04:54:55;;;;;;;36.65;25.23;;;;;;;14.84;100.00;101836.13;6272444;28;20049;-77
2021/06/04 04:57:56;;;;;;;37.78;26.02;;;;;;;14.88;100.00;101830.56;6272126;28;20048;-77
2021/06/04 05:00:59;;;;;;;37.13;26.42;;;;;;;14.93;100.00;101836.47;6271537;28;20098;-77
2021/06/04 05:04:00;;;;;;;48.15;35.45;;;;;;;14.96;100.00;101833.66;6271395;28;20492;-77
2021/06/04 05:07:02;;;;;;;55.50;41.10;;;;;;;14.98;100.00;101831.78;6271878;28;20041;-77
2021/06/04 05:10:05;;;;;;;39.97;30.35;;;;;;;15.04;100.00;101835.91;6271476;28;20049;-77
2021/06/04 05:13:08;;;;;;;46.28;29.50;;;;;;;15.12;100.00;101835.47;6271738;28;20049;-77
2021/06/04 05:16:10;;;;;;;40.20;28.23;;;;;;;15.19;100.00;101820.97;6271528;28;20060;-77
2021/06/04 05:19:11;;;;;;;36.25;26.65;;;;;;;15.27;100.00;101820.53;6271141;28;20045;-77
2021/06/04 05:22:13;;;;;;;37.80;26.25;;;;;;;15.37;100.00;101819.09;6271514;28;20056;-77
2021/06/04 05:25:17;;;;;;;36.17;25.45;;;;;;;15.47;100.00;101825.56;6271266;28;20048;-77
2021/06/04 05:28:21;;;;;;;42.72;27.67;;;;;;;15.58;100.00;101827.59;6270553;28;20049;-77
2021/06/04 05:31:23;;;;;;;38.83;25.17;;;;;;;15.66;100.00;101826.25;6271157;28;20052;-77
2021/06/04 05:34:25;;;;;;;34.05;24.27;;;;;;;15.72;100.00;101828.56;6271176;28;20687;-78
2021/06/04 05:37:26;;;;;;;34.78;23.60;;;;;;;15.79;100.00;101826.41;6271440;28;20071;-77
2021/06/04 05:40:30;;;;;;;32.55;21.80;;;;;;;15.86;100.00;101829.56;6271470;28;20056;-78
2021/06/04 05:43:34;;;;;;;30.33;22.17;;;;;;;15.91;100.00;101841.59;6271405;28;20045;-77
2021/06/04 05:46:36;;;;;;;34.90;24.50;;;;;;;16.00;100.00;101839.38;6271995;28;20056;-77
2021/06/04 05:49:37;;;;;;;30.92;23.45;;;;;;;16.07;100.00;101832.72;6271192;28;20500;-82
2021/06/04 05:52:38;;;;;;;35.08;24.05;;;;;;;16.15;100.00;101835.78;6271204;28;20044;-77
2021/06/04 05:55:40;;;;;;;29.38;19.05;;;;;;;16.16;100.00;101838.34;6271203;28;20045;-78
2021/06/04 05:58:44;;;;;;;24.35;18.20;;;;;;;16.22;100.00;101840.66;6270990;28;20056;-77
2021/06/04 06:01:47;;;;;;;22.35;17.15;;;;;;;16.26;100.00;101848.41;6271239;28;20053;-77
2021/06/04 06:04:48;;;;;;;23.20;19.17;;;;;;;16.18;100.00;101844.44;6270664;28;20045;-77
2021/06/04 06:07:49;;;;;;;22.58;18.17;;;;;;;16.20;100.00;101842.53;6271262;28;20049;-77
2021/06/04 06:10:50;;;;;;;21.70;18.30;;;;;;;16.22;100.00;101847.75;6270832;28;20053;-77
2021/06/04 06:13:51;;;;;;;24.35;19.48;;;;;;;16.27;100.00;101850.13;6271104;28;20049;-78
2021/06/04 06:16:54;;;;;;;27.20;20.85;;;;;;;16.36;100.00;101857.53;6270943;28;20045;-77
2021/06/04 06:19:55;;;;;;;25.02;20.58;;;;;;;16.41;100.00;101858.97;6270830;28;20534;-77
2021/06/04 06:22:56;;;;;;;26.55;20.52;;;;;;;16.45;100.00;101860.50;6270878;28;20053;-77
2021/06/04 06:26:01;;;;;;;25.63;18.45;;;;;;;16.52;100.00;101865.44;6270566;28;20041;-77
2021/06/04 06:29:05;;;;;;;25.08;19.38;;;;;;;16.57;100.00;101866.00;6270233;28;20120;-79
2021/06/04 06:32:10;;;;;;;25.67;20.77;;;;;;;16.59;100.00;101859.66;6269613;28;20041;-78
2021/06/04 06:35:13;;;;;;;26.67;19.52;;;;;;;16.72;100.00;101868.63;6269013;28;20048;-77
2021/06/04 06:38:16;;;;;;;22.98;18.45;;;;;;;16.76;100.00;101868.41;6267112;28;20094;-78
2021/06/04 06:41:17;;;;;;;25.02;19.63;;;;;;;16.81;100.00;101869.84;6269557;28;20045;-77
2021/06/04 06:44:19;;;;;;;21.10;18.13;;;;;;;16.82;100.00;101876.88;6270090;28;20716;-79
2021/06/04 06:47:22;;;;;;;28.02;22.30;;;;;;;16.90;100.00;101871.09;6272530;28;20512;-78
2021/06/04 06:50:25;;;;;;;24.65;19.73;;;;;;;17.06;100.00;101876.28;6273865;28;20130;-78
2021/06/04 06:53:27;;;;;;;22.88;18.23;;;;;;;17.10;100.00;101873.34;6273544;28;20064;-78
2021/06/04 06:56:28;;;;;;;20.50;16.75;;;;;;;17.15;100.00;101881.03;6271240;28;20038;-79
2021/06/04 06:59:31;;;;;;;19.58;16.25;;;;;;;17.22;100.00;101875.25;6275290;28;20048;-78
2021/06/04 07:02:33;;;;;;;20.38;17.33;;;;;;;17.45;100.00;101880.91;6275414;28;20049;-77
2021/06/04 07:05:35;;;;;;;20.40;16.67;;;;;;;17.45;100.00;101872.91;6275410;28;20049;-79
2021/06/04 07:08:36;;;;;;;25.05;15.70;;;;;;;17.43;100.00;101875.66;6274601;28;20045;-78
2021/06/04 07:11:40;;;;;;;20.90;16.83;;;;;;;17.45;100.00;101884.41;6274385;28;20056;-78
2021/06/04 07:14:41;;;;;;;24.60;17.20;;;;;;;17.50;100.00;101879.63;6275263;28;20041;-78
2021/06/04 07:17:44;;;;;;;17.38;15.43;;;;;;;17.60;100.00;101887.03;6275156;28;20053;-78
2021/06/04 07:20:44;;;;;;;20.08;15.82;;;;;;;17.66;100.00;101887.47;6275078;28;20068;-78
2021/06/04 07:23:45;;;;;;;18.05;15.70;;;;;;;17.65;100.00;101892.88;6274613;28;20135;-77
2021/06/04 07:26:48;;;;;;;19.23;14.25;;;;;;;17.90;100.00;101885.06;6274375;28;20077;-76
2021/06/04 07:29:49;;;;;;;18.05;14.38;;;;;;;17.98;100.00;101877.41;6272794;28;20071;-78
2021/06/04 07:32:52;;;;;;;18.45;15.35;;;;;;;17.94;100.00;101880.38;6274608;28;20063;-78
2021/06/04 07:35:58;;;;;;;18.05;14.88;;;;;;;17.95;100.00;101879.44;6274833;28;20118;-78
2021/06/04 07:38:59;;;;;;;33.17;17.30;;;;;;;17.92;100.00;101885.78;6273324;28;20118;-78
2021/06/04 07:42:02;;;;;;;23.15;15.35;;;;;;;17.92;100.00;101887.59;6274727;28;20053;-78
2021/06/04 07:45:09;;;;;;;24.27;18.73;;;;;;;18.04;100.00;101888.63;6272111;28;20071;-78
2021/06/04 07:48:14;;;;;;;26.63;21.70;;;;;;;18.22;100.00;101892.69;6265987;28;20115;-78
2021/06/04 07:51:19;;;;;;;24.83;20.70;;;;;;;18.29;100.00;101890.47;6273474;28;20561;-77
2021/06/04 07:54:20;;;;;;;23.85;19.58;;;;;;;18.44;100.00;101897.41;6274331;28;20052;-78
2021/06/04 07:57:21;;;;;;;20.92;17.15;;;;;;;18.42;100.00;101899.31;6274327;28;20080;-78
2021/06/04 08:00:26;;;;;;;18.27;14.70;;;;;;;18.34;100.00;101889.19;6274989;28;20083;-79
2021/06/04 08:03:29;;;;;;;20.80;16.95;;;;;;;18.46;100.00;101901.69;6274681;28;20073;-78
2021/06/04 08:06:30;;;;;;;23.30;17.85;;;;;;;18.59;100.00;101890.19;6275176;28;20609;-78
2021/06/04 08:09:31;;;;;;;19.75;12.95;;;;;;;18.78;100.00;101893.31;6274277;28;20136;-78
2021/06/04 08:12:32;;;;;;;20.48;11.80;;;;;;;18.72;100.00;101889.28;6274666;28;20051;-79
2021/06/04 08:15:35;;;;;;;18.33;13.40;;;;;;;18.82;100.00;101888.63;6273225;28;20045;-78
2021/06/04 08:18:39;;;;;;;14.13;10.30;;;;;;;18.92;100.00;101901.19;6274057;28;20067;-78
2021/06/04 08:21:44;;;;;;;14.25;11.73;;;;;;;19.12;100.00;101901.59;6273214;28;20060;-78
2021/06/04 08:24:45;;;;;;;14.35;9.75;;;;;;;19.63;100.00;101890.84;6272785;28;20044;-78
2021/06/04 08:27:46;;;;;;;16.15;8.73;;;;;;;19.48;100.00;101898.97;6273632;28;20511;-77
2021/06/04 08:30:48;;;;;;;17.48;9.65;;;;;;;19.43;100.00;101895.75;6271029;28;20084;-78
2021/06/04 08:33:51;;;;;;;11.70;9.77;;;;;;;19.35;100.00;101898.16;6272839;28;20053;-78
2021/06/04 08:36:53;;;;;;;13.43;9.80;;;;;;;19.25;100.00;101889.09;6273167;28;20045;-78
2021/06/04 08:39:54;;;;;;;13.77;10.60;;;;;;;19.19;100.00;101894.88;6272108;28;20080;-78
2021/06/04 08:43:08;;;;;;;16.00;10.82;;;;;;;19.32;100.00;101878.84;6272944;28;20095;-78
2021/06/04 08:46:18;;;;;;;12.98;9.30;;;;;;;19.51;100.00;101880.06;6272365;28;20049;-77
2021/06/04 08:49:27;;;;;;;10.25;8.88;;;;;;;19.39;100.00;101880.09;6272322;28;20044;-77
2021/06/04 08:52:37;;;;;;;12.90;9.90;;;;;;;19.33;100.00;101881.41;6273863;28;20045;-78
2021/06/04 08:55:44;;;;;;;17.80;11.52;;;;;;;19.52;100.00;101876.44;6271422;28;20048;-79
2021/06/04 08:58:53;;;;;;;13.73;11.38;;;;;;;19.41;100.00;101879.03;6273807;28;20060;-79
2021/06/04 09:01:58;;;;;;;13.80;10.57;;;;;;;19.44;100.00;101876.16;6275093;28;20048;-79
2021/06/04 09:05:05;;;;;;;15.73;11.68;;;;;;;19.47;100.00;101875.91;6275364;28;20045;-78
2021/06/04 09:08:09;;;;;;;11.68;10.43;;;;;;;20.00;100.00;101872.97;6272995;28;20053;-79
2021/06/04 09:11:19;;;;;;;13.57;9.63;;;;;;;19.82;100.00;101869.84;6271520;28;20049;-79
2021/06/04 09:14:22;;;;;;;12.57;9.85;;;;;;;19.86;100.00;101867.81;6272082;28;20083;-78
2021/06/04 09:17:31;;;;;;;14.18;9.68;;;;;;;19.82;100.00;101869.00;6272817;28;20052;-80
2021/06/04 09:20:38;;;;;;;;;;;;;;;19.72;100.00;101879.50;6271478;28;20180;-78
2021/06/04 09:23:41;;;;;;;14.38;8.57;;;;;;;19.62;100.00;101882.00;6272739;28;19992;-81
2021/06/04 09:26:42;;;;;;;11.88;8.90;;;;;;;19.66;100.00;101882.59;6271973;28;20056;-79
2021/06/04 09:29:43;;;;;;;10.50;8.70;;;;;;;19.67;100.00;101879.84;6272439;28;20095;-79
2021/06/04 09:33:00;;;;;;;13.18;8.55;;;;;;;20.14;100.00;101885.25;6271275;28;20559;-77
2021/06/04 09:36:08;;;;;;;10.65;8.50;;;;;;;20.22;99.47;101882.88;6271482;28;20080;-78
2021/06/04 09:39:22;;;;;;;16.13;10.82;;;;;;;20.27;100.00;101886.88;6270787;28;20492;-78
2021/06/04 09:42:26;;;;;;;18.60;11.65;;;;;;;20.45;100.00;101881.09;6271185;28;20045;-77
2021/06/04 09:45:31;;;;;;;15.02;11.25;;;;;;;20.42;100.00;101874.16;6270762;28;20056;-76
2021/06/04 09:48:39;;;;;;;17.70;11.23;;;;;;;20.47;100.00;101882.69;6271249;28;20065;-77
2021/06/04 09:51:41;;;;;;;12.48;10.35;;;;;;;20.63;100.00;101885.06;6268329;28;20535;-76
2021/06/04 09:54:42;;;;;;;16.13;10.95;;;;;;;20.44;99.17;101882.94;6267202;28;20045;-76
2021/06/04 09:58:08;;;;;;;17.42;12.52;;;;;;;20.50;98.79;101889.66;6268498;28;20060;-76
2021/06/04 10:01:11;;;;;;;14.02;10.55;;;;;;;20.45;100.00;101883.78;6270168;28;20053;-76
2021/06/04 10:04:16;;;;;;;13.98;10.57;;;;;;;20.46;97.03;101888.16;6292109;22;20049;-78
2021/06/04 10:07:22;;;;;;;12.98;11.10;;;;;;;20.81;98.57;101888.13;6220165;28;20125;-78
2021/06/04 10:10:27;;;;;;;15.00;11.10;;;;;;;20.93;96.68;101883.59;6222182;28;20104;-79
2021/06/04 10:13:36;;;;;;;14.63;10.82;;;;;;;21.27;95.34;101882.63;6223036;28;20046;-78
2021/06/04 10:17:00;;;;;;;13.50;9.80;;;;;;;21.12;96.64;101878.53;6223923;28;20465;-76
2021/06/04 10:20:01;;;;;;;13.48;10.98;;;;;;;21.33;94.15;101889.34;6223758;28;20457;-76
2021/06/04 10:23:08;;;;;;;18.40;12.98;;;;;;;21.33;88.89;101885.81;6227316;28;20100;-78
2021/06/04 10:26:24;;;;;;;18.30;12.50;;;;;;;21.28;92.32;101886.16;6203040;28;20057;-79
2021/06/04 10:29:25;;;;;;;20.83;14.13;;;;;;;21.24;93.01;101880.19;6206133;28;20073;-79
2021/06/04 10:32:32;;;;;;;18.13;13.65;;;;;;;21.11;91.36;101878.63;6205786;28;20081;-76
2021/06/04 10:35:38;;;;;;;17.23;12.20;;;;;;;21.22;89.90;101878.63;6205377;28;20058;-76
2021/06/04 10:38:44;;;;;;;16.00;12.73;;;;;;;21.15;89.00;101877.41;6203121;28;20061;-76
2021/06/04 10:41:55;;;;;;;15.05;12.95;;;;;;;21.27;90.29;101873.75;6203764;28;20054;-76
2021/06/04 10:45:06;;;;;;;18.35;13.07;;;;;;;21.25;92.70;101876.53;6202070;28;20137;-76
2021/06/04 10:48:26;;;;;;;17.90;11.95;;;;;;;21.42;88.84;101880.56;6201487;28;20098;-76
2021/06/04 10:51:32;;;;;;;13.43;11.00;;;;;;;21.69;89.29;101873.94;6201453;28;20141;-77
2021/06/04 10:54:43;;;;;;;13.95;12.15;;;;;;;21.70;90.67;101875.63;6201522;28;20054;-78
2021/06/04 10:57:47;;;;;;;19.23;16.27;;;;;;;22.21;87.81;101858.88;6201120;28;20069;-76
2021/06/04 11:00:55;;;;;;;25.73;16.40;;;;;;;22.25;89.51;101868.34;6200938;28;20054;-76
2021/06/04 11:04:01;;;;;;;20.88;15.68;;;;;;;22.17;88.57;101866.34;6201491;28;20050;-74
2021/06/04 11:07:10;;;;;;;22.95;14.52;;;;;;;22.02;89.89;101863.09;6201058;28;20111;-75
2021/06/04 11:10:20;;;;;;;20.40;14.25;;;;;;;22.26;84.67;101856.69;6200933;28;20108;-76
2021/06/04 11:13:31;;;;;;;21.38;14.27;;;;;;;22.18;88.07;101861.84;6200943;28;20057;-74
2021/06/04 11:16:37;;;;;;;17.90;14.82;;;;;;;22.57;86.11;101849.53;6201079;28;20054;-76
2021/06/04 11:19:44;;;;;;;19.77;15.15;;;;;;;22.61;86.70;101853.63;6200546;28;20184;-76
2021/06/04 11:22:50;;;;;;;19.27;16.42;;;;;;;22.34;86.16;101847.97;6200650;28;20046;-76
2021/06/04 11:25:57;;;;;;;23.63;18.02;;;;;;;22.43;91.53;101850.72;6199816;28;20193;-76
2021/06/04 11:29:03;;;;;;;22.58;16.90;;;;;;;22.76;87.66;101838.91;6200523;28;20050;-76
2021/06/04 11:32:11;;;;;;;17.88;14.70;;;;;;;23.23;80.49;101844.59;6200045;28;20485;-76
2021/06/04 11:35:25;;;;;;;18.88;12.77;;;;;;;23.19;83.73;101840.50;6200618;28;20062;-76
2021/06/04 11:38:34;;;;;;;17.30;12.05;;;;;;;23.25;82.33;101837.25;6200405;28;20053;-76
2021/06/04 11:41:42;;;;;;;17.30;12.90;;;;;;;23.53;79.69;101838.31;6200218;28;20457;-75
2021/06/04 11:44:46;;;;;;;13.50;10.98;;;;;;;23.84;82.64;101840.88;6200163;28;20058;-75
2021/06/04 11:47:47;;;;;;;14.40;11.73;;;;;;;23.75;80.99;101841.72;6200191;28;20486;-75
2021/06/04 11:50:49;;;;;;;15.80;12.85;;;;;;;23.81;79.21;101843.88;6199649;28;20060;-75
2021/06/04 11:53:51;;;;;;;17.08;12.32;;;;;;;23.80;77.57;101836.81;6200001;28;20057;-76
2021/06/04 11:56:58;;;;;;;15.15;11.95;;;;;;;23.60;79.58;101827.00;6199851;28;20050;-77
2021/06/04 12:00:29;;;;;;;14.48;10.68;;;;;;;23.86;76.60;101832.72;6199942;28;20050;-76
2021/06/04 12:03:33;;;;;;;14.45;9.77;;;;;;;24.12;79.55;101836.50;6199802;28;20046;-75
2021/06/04 12:06:54;;;;;;;16.55;12.55;;;;;;;24.28;73.73;101827.84;6199439;28;20050;-75
2021/06/04 12:09:55;;;;;;;19.17;11.38;;;;;;;23.94;76.20;101817.59;6199311;28;20104;-75
2021/06/04 12:12:58;;;;;;;18.90;11.93;;;;;;;24.00;75.22;101818.84;6199625;28;20046;-75
2021/06/04 12:16:25;;;;;;;15.13;10.57;;;;;;;24.01;76.95;101816.00;6199326;28;20053;-75
2021/06/04 12:19:32;;;;;;;12.73;9.48;;;;;;;24.78;76.63;101809.59;6199279;28;20050;-78
2021/06/04 12:22:39;;;;;;;17.67;8.68;;;;;;;24.55;74.50;101806.44;6199416;28;20065;-76
2021/06/04 12:25:45;;;;;;;13.75;10.32;;;;;;;24.74;72.08;101810.88;6199238;28;20089;-76
2021/06/04 12:28:47;;;;;;;13.48;9.25;;;;;;;24.62;70.46;101797.75;6198999;28;20138;-75
2021/06/04 12:31:53;;;;;;;15.57;8.95;;;;;;;24.68;72.47;101797.19;6198919;28;20050;-75
2021/06/04 12:34:59;;;;;;;15.88;8.32;;;;;;;24.99;72.57;101797.75;6198931;28;20057;-75
2021/06/04 12:38:18;;;;;;;15.43;7.95;;;;;;;25.22;68.23;101792.81;6198988;28;20046;-76
2021/06/04 12:41:23;;;;;;;9.40;7.38;;;;;;;25.59;66.94;101787.28;6198987;28;20061;-76
2021/06/04 12:44:25;;;;;;;8.35;6.55;;;;;;;25.69;68.49;101785.34;6198020;28;20047;-76
2021/06/04 12:47:30;;;;;;;11.35;6.93;;;;;;;25.68;69.09;101783.69;6198669;28;20092;-75
2021/06/04 12:50:35;;;;;;;10.13;7.60;;;;;;;26.01;64.30;101767.78;6198649;28;20058;-75
2021/06/04 12:53:37;;;;;;;13.25;7.35;;;;;;;26.00;65.81;101760.72;6198477;28;20061;-75
2021/06/04 12:56:42;;;;;;;13.32;9.18;;;;;;;26.14;62.11;101764.69;6198809;28;20046;-75
2021/06/04 12:59:44;;;;;;;12.80;8.18;;;;;;;25.69;66.72;101763.81;6198329;28;20528;-75
2021/06/04 13:02:46;;;;;;;11.93;7.68;;;;;;;26.04;64.61;101757.56;6198447;28;20399;-75
2021/06/04 13:05:51;;;;;;;12.05;7.30;;;;;;;25.80;68.06;101760.94;6198200;28;20053;-75
2021/06/04 13:08:53;;;;;;;8.98;5.90;;;;;;;25.61;65.26;101752.13;6198500;28;20061;-77
2021/06/04 13:11:54;;;;;;;9.30;6.35;;;;;;;25.82;64.83;101755.38;6198333;28;20516;-77
2021/06/04 13:15:08;;;;;;;10.73;7.03;;;;;;;26.30;62.37;101759.41;6198636;28;20574;-76
2021/06/04 13:18:15;;;;;;;12.35;6.72;;;;;;;26.41;62.05;101763.66;6198586;28;20457;-76
2021/06/04 13:21:20;;;;;;;12.02;5.63;;;;;;;26.44;59.57;101753.44;6198967;28;20054;-75
2021/06/04 13:24:27;;;;;;;13.05;7.28;;;;;;;26.29;62.52;101744.22;6199090;28;20050;-75
2021/06/04 13:27:30;;;;;;;8.80;6.07;;;;;;;26.65;62.94;101749.47;6199335;28;20046;-76
2021/06/04 13:30:35;;;;;;;9.57;7.50;;;;;;;27.04;58.20;101745.22;6198264;28;20105;-75
2021/06/04 13:33:38;;;;;;;8.85;5.45;;;;;;;26.95;64.41;101748.06;6198657;28;20046;-75
2021/06/04 13:36:40;;;;;;;9.73;7.28;;;;;;;26.95;59.83;101750.75;6198437;28;20050;-74
2021/06/04 13:39:42;;;;;;;9.77;7.35;;;;;;;26.83;59.46;101758.31;6198397;28;20051;-74
2021/06/04 13:42:46;;;;;;;9.73;7.00;;;;;;;26.68;61.41;101750.00;6198619;28;20433;-75
2021/06/04 13:45:48;;;;;;;11.65;7.47;;;;;;;26.63;63.78;101743.41;6198336;28;20050;-75
2021/06/04 13:49:04;;;;;;;12.00;7.97;;;;;;;27.12;58.63;101748.97;6198944;28;20054;-76
2021/06/04 13:52:21;;;;;;;15.35;7.65;;;;;;;26.88;62.13;101745.16;6198498;28;20058;-76
2021/06/04 13:55:22;;;;;;;10.63;7.55;;;;;;;26.86;59.14;101738.25;6199922;28;20129;-75
2021/06/04 13:58:25;;;;;;;11.20;7.65;;;;;;;26.76;60.37;101741.09;6209633;28;20501;-75